sensor_id;sensor_type;location;lat;lon;timestamp;P1;durP1;ratioP1;P2;durP2;ratioP2
21297;SDS011;10808;48.010;11.326;2023-04-26T00:02:10;10.88;;;6.97;;
21297;SDS011;10808;48.010;11.326;2023-04-26T00:04:37;9.35;;;6.78;;
21297;SDS011;10808;48.010;11.326;2023-04-26T00:07:03;9.98;;;6.20;;
21297;SDS011;10808;48.010;11.326;2023-04-26T00:09:30;10.85;;;6.75;;
21297;SDS011;10808;48.010;11.326;2023-04-26T00:11:56;9.90;;;6.28;;
21297;SDS011;10808;48.010;11.326;2023-04-26T00:14:22;7.80;;;5.90;;
21297;SDS011;10808;48.010;11.326;2023-04-26T00:16:48;9.75;;;6.55;;
21297;SDS011;10808;48.010;11.326;2023-04-26T00:19:14;7.90;;;5.72;;
21297;SDS011;10808;48.010;11.326;2023-04-26T00:21:41;8.13;;;5.72;;
21297;SDS011;10808;48.010;11.326;2023-04-26T00:24:07;7.72;;;5.70;;
21297;SDS011;10808;48.010;11.326;2023-04-26T00:26:34;8.23;;;5.60;;
21297;SDS011;10808;48.010;11.326;2023-04-26T00:29:00;8.02;;;5.88;;
21297;SDS011;10808;48.010;11.326;2023-04-26T00:31:28;8.55;;;5.78;;
21297;SDS011;10808;48.010;11.326;2023-04-26T00:33:54;8.32;;;5.30;;
21297;SDS011;10808;48.010;11.326;2023-04-26T00:36:20;10.13;;;5.83;;
21297;SDS011;10808;48.010;11.326;2023-04-26T00:38:46;8.32;;;6.03;;
21297;SDS011;10808;48.010;11.326;2023-04-26T00:41:12;8.63;;;6.30;;
21297;SDS011;10808;48.010;11.326;2023-04-26T00:43:39;8.90;;;6.60;;
21297;SDS011;10808;48.010;11.326;2023-04-26T00:46:05;10.48;;;6.82;;
21297;SDS011;10808;48.010;11.326;2023-04-26T00:48:33;13.53;;;8.27;;
21297;SDS011;10808;48.010;11.326;2023-04-26T00:51:00;11.02;;;7.38;;
21297;SDS011;10808;48.010;11.326;2023-04-26T00:53:26;12.95;;;8.35;;
21297;SDS011;10808;48.010;11.326;2023-04-26T00:55:55;12.45;;;8.40;;
21297;SDS011;10808;48.010;11.326;2023-04-26T00:58:21;12.10;;;8.15;;
21297;SDS011;10808;48.010;11.326;2023-04-26T01:00:47;10.85;;;7.55;;
21297;SDS011;10808;48.010;11.326;2023-04-26T01:03:14;10.68;;;6.78;;
21297;SDS011;10808;48.010;11.326;2023-04-26T01:05:41;9.85;;;6.55;;
21297;SDS011;10808;48.010;11.326;2023-04-26T01:08:08;7.33;;;5.83;;
21297;SDS011;10808;48.010;11.326;2023-04-26T01:10:34;8.60;;;5.47;;
21297;SDS011;10808;48.010;11.326;2023-04-26T01:13:01;8.35;;;5.32;;
21297;SDS011;10808;48.010;11.326;2023-04-26T01:15:28;6.50;;;5.18;;
21297;SDS011;10808;48.010;11.326;2023-04-26T01:17:55;6.72;;;4.95;;
21297;SDS011;10808;48.010;11.326;2023-04-26T01:20:22;6.75;;;5.22;;
21297;SDS011;10808;48.010;11.326;2023-04-26T01:22:48;7.65;;;5.25;;
21297;SDS011;10808;48.010;11.326;2023-04-26T01:25:14;6.35;;;4.93;;
21297;SDS011;10808;48.010;11.326;2023-04-26T01:27:41;6.88;;;5.30;;
21297;SDS011;10808;48.010;11.326;2023-04-26T01:30:07;7.20;;;5.40;;
21297;SDS011;10808;48.010;11.326;2023-04-26T01:32:34;7.47;;;5.18;;
21297;SDS011;10808;48.010;11.326;2023-04-26T01:35:00;7.68;;;5.65;;
21297;SDS011;10808;48.010;11.326;2023-04-26T01:37:26;8.30;;;5.72;;
21297;SDS011;10808;48.010;11.326;2023-04-26T01:39:52;8.63;;;5.78;;
21297;SDS011;10808;48.010;11.326;2023-04-26T01:42:19;8.70;;;6.00;;
21297;SDS011;10808;48.010;11.326;2023-04-26T01:44:45;8.07;;;6.20;;
21297;SDS011;10808;48.010;11.326;2023-04-26T01:47:11;12.05;;;6.00;;
21297;SDS011;10808;48.010;11.326;2023-04-26T01:49:37;10.63;;;6.43;;
21297;SDS011;10808;48.010;11.326;2023-04-26T01:52:03;8.57;;;6.38;;
21297;SDS011;10808;48.010;11.326;2023-04-26T01:54:29;9.90;;;6.53;;
21297;SDS011;10808;48.010;11.326;2023-04-26T01:56:55;9.20;;;6.50;;
21297;SDS011;10808;48.010;11.326;2023-04-26T01:59:21;9.40;;;6.65;;
21297;SDS011;10808;48.010;11.326;2023-04-26T02:01:47;9.00;;;6.80;;
21297;SDS011;10808;48.010;11.326;2023-04-26T02:04:13;11.00;;;7.10;;
21297;SDS011;10808;48.010;11.326;2023-04-26T02:06:39;9.82;;;7.00;;
21297;SDS011;10808;48.010;11.326;2023-04-26T02:09:06;10.00;;;6.78;;
21297;SDS011;10808;48.010;11.326;2023-04-26T02:11:36;12.68;;;7.20;;
21297;SDS011;10808;48.010;11.326;2023-04-26T02:14:02;11.80;;;7.05;;
21297;SDS011;10808;48.010;11.326;2023-04-26T02:16:28;9.65;;;7.25;;
21297;SDS011;10808;48.010;11.326;2023-04-26T02:18:54;11.33;;;6.87;;
21297;SDS011;10808;48.010;11.326;2023-04-26T02:21:20;12.55;;;7.20;;
21297;SDS011;10808;48.010;11.326;2023-04-26T02:23:46;11.57;;;7.30;;
21297;SDS011;10808;48.010;11.326;2023-04-26T02:26:13;11.88;;;6.90;;
21297;SDS011;10808;48.010;11.326;2023-04-26T02:28:39;9.68;;;6.70;;
21297;SDS011;10808;48.010;11.326;2023-04-26T02:31:06;11.38;;;7.22;;
21297;SDS011;10808;48.010;11.326;2023-04-26T02:33:32;11.65;;;7.15;;
21297;SDS011;10808;48.010;11.326;2023-04-26T02:36:01;10.27;;;6.78;;
21297;SDS011;10808;48.010;11.326;2023-04-26T02:38:29;8.80;;;6.53;;
21297;SDS011;10808;48.010;11.326;2023-04-26T02:40:59;11.63;;;7.68;;
21297;SDS011;10808;48.010;11.326;2023-04-26T02:43:25;10.80;;;7.32;;
21297;SDS011;10808;48.010;11.326;2023-04-26T02:45:51;10.32;;;7.10;;
21297;SDS011;10808;48.010;11.326;2023-04-26T02:48:18;10.80;;;7.10;;
21297;SDS011;10808;48.010;11.326;2023-04-26T02:50:44;9.95;;;7.00;;
21297;SDS011;10808;48.010;11.326;2023-04-26T02:53:11;11.07;;;7.20;;
21297;SDS011;10808;48.010;11.326;2023-04-26T02:55:37;9.98;;;6.93;;
21297;SDS011;10808;48.010;11.326;2023-04-26T02:58:04;9.37;;;6.83;;
21297;SDS011;10808;48.010;11.326;2023-04-26T03:00:30;10.82;;;7.65;;
21297;SDS011;10808;48.010;11.326;2023-04-26T03:02:58;12.25;;;7.07;;
21297;SDS011;10808;48.010;11.326;2023-04-26T03:05:24;13.82;;;7.30;;
21297;SDS011;10808;48.010;11.326;2023-04-26T03:07:51;13.40;;;7.47;;
21297;SDS011;10808;48.010;11.326;2023-04-26T03:10:17;10.68;;;6.82;;
21297;SDS011;10808;48.010;11.326;2023-04-26T03:12:43;9.00;;;6.47;;
21297;SDS011;10808;48.010;11.326;2023-04-26T03:15:09;9.88;;;6.70;;
21297;SDS011;10808;48.010;11.326;2023-04-26T03:17:35;13.30;;;7.25;;
21297;SDS011;10808;48.010;11.326;2023-04-26T03:20:02;9.95;;;7.07;;
21297;SDS011;10808;48.010;11.326;2023-04-26T03:22:31;11.02;;;6.68;;
21297;SDS011;10808;48.010;11.326;2023-04-26T03:24:57;12.43;;;7.30;;
21297;SDS011;10808;48.010;11.326;2023-04-26T03:27:23;9.93;;;6.70;;
21297;SDS011;10808;48.010;11.326;2023-04-26T03:29:49;9.32;;;6.85;;
21297;SDS011;10808;48.010;11.326;2023-04-26T03:32:15;11.00;;;7.10;;
21297;SDS011;10808;48.010;11.326;2023-04-26T03:34:41;11.43;;;6.80;;
21297;SDS011;10808;48.010;11.326;2023-04-26T03:37:07;10.27;;;6.70;;
21297;SDS011;10808;48.010;11.326;2023-04-26T03:39:33;9.40;;;7.28;;
21297;SDS011;10808;48.010;11.326;2023-04-26T03:41:59;12.48;;;6.93;;
21297;SDS011;10808;48.010;11.326;2023-04-26T03:44:25;9.98;;;7.05;;
21297;SDS011;10808;48.010;11.326;2023-04-26T03:46:51;14.23;;;7.63;;
21297;SDS011;10808;48.010;11.326;2023-04-26T03:49:17;10.23;;;7.35;;
21297;SDS011;10808;48.010;11.326;2023-04-26T03:51:43;10.48;;;7.07;;
21297;SDS011;10808;48.010;11.326;2023-04-26T03:54:10;10.40;;;7.68;;
21297;SDS011;10808;48.010;11.326;2023-04-26T03:56:36;13.17;;;7.57;;
21297;SDS011;10808;48.010;11.326;2023-04-26T03:59:02;11.35;;;7.05;;
21297;SDS011;10808;48.010;11.326;2023-04-26T04:01:28;10.18;;;7.40;;
21297;SDS011;10808;48.010;11.326;2023-04-26T04:03:54;12.87;;;7.80;;
21297;SDS011;10808;48.010;11.326;2023-04-26T04:06:20;12.95;;;7.60;;
21297;SDS011;10808;48.010;11.326;2023-04-26T04:08:46;12.95;;;7.65;;
21297;SDS011;10808;48.010;11.326;2023-04-26T04:11:12;10.25;;;7.45;;
21297;SDS011;10808;48.010;11.326;2023-04-26T04:13:38;11.60;;;7.93;;
21297;SDS011;10808;48.010;11.326;2023-04-26T04:16:04;11.65;;;7.88;;
21297;SDS011;10808;48.010;11.326;2023-04-26T04:18:31;13.25;;;7.75;;
21297;SDS011;10808;48.010;11.326;2023-04-26T04:20:57;13.45;;;7.78;;
21297;SDS011;10808;48.010;11.326;2023-04-26T04:23:23;11.70;;;7.85;;
21297;SDS011;10808;48.010;11.326;2023-04-26T04:25:49;11.88;;;7.63;;
21297;SDS011;10808;48.010;11.326;2023-04-26T04:28:16;12.25;;;8.00;;
21297;SDS011;10808;48.010;11.326;2023-04-26T04:30:42;16.45;;;9.45;;
21297;SDS011;10808;48.010;11.326;2023-04-26T04:33:11;16.52;;;8.77;;
21297;SDS011;10808;48.010;11.326;2023-04-26T04:35:39;13.25;;;8.10;;
21297;SDS011;10808;48.010;11.326;2023-04-26T04:38:06;12.15;;;8.32;;
21297;SDS011;10808;48.010;11.326;2023-04-26T04:40:32;12.20;;;7.55;;
21297;SDS011;10808;48.010;11.326;2023-04-26T04:42:58;11.30;;;7.82;;
21297;SDS011;10808;48.010;11.326;2023-04-26T04:45:25;14.40;;;8.73;;
21297;SDS011;10808;48.010;11.326;2023-04-26T04:47:51;11.13;;;8.02;;
21297;SDS011;10808;48.010;11.326;2023-04-26T04:50:18;12.77;;;8.05;;
21297;SDS011;10808;48.010;11.326;2023-04-26T04:52:44;11.52;;;7.68;;
21297;SDS011;10808;48.010;11.326;2023-04-26T04:55:11;11.60;;;7.53;;
21297;SDS011;10808;48.010;11.326;2023-04-26T04:57:37;11.13;;;7.40;;
21297;SDS011;10808;48.010;11.326;2023-04-26T05:00:03;13.18;;;8.23;;
21297;SDS011;10808;48.010;11.326;2023-04-26T05:02:40;13.68;;;8.40;;
21297;SDS011;10808;48.010;11.326;2023-04-26T05:05:06;13.07;;;8.50;;
21297;SDS011;10808;48.010;11.326;2023-04-26T05:07:33;13.80;;;8.33;;
21297;SDS011;10808;48.010;11.326;2023-04-26T05:09:59;12.20;;;7.72;;
21297;SDS011;10808;48.010;11.326;2023-04-26T05:12:25;12.68;;;8.23;;
21297;SDS011;10808;48.010;11.326;2023-04-26T05:14:51;11.40;;;8.05;;
21297;SDS011;10808;48.010;11.326;2023-04-26T05:17:17;13.10;;;8.15;;
21297;SDS011;10808;48.010;11.326;2023-04-26T05:19:43;12.65;;;8.20;;
21297;SDS011;10808;48.010;11.326;2023-04-26T05:22:10;12.23;;;7.95;;
21297;SDS011;10808;48.010;11.326;2023-04-26T05:24:44;13.18;;;7.78;;
21297;SDS011;10808;48.010;11.326;2023-04-26T05:27:11;13.93;;;8.10;;
21297;SDS011;10808;48.010;11.326;2023-04-26T05:29:37;14.88;;;8.30;;
21297;SDS011;10808;48.010;11.326;2023-04-26T05:32:03;10.38;;;8.05;;
21297;SDS011;10808;48.010;11.326;2023-04-26T05:34:29;13.65;;;7.82;;
21297;SDS011;10808;48.010;11.326;2023-04-26T05:36:55;12.80;;;8.02;;
21297;SDS011;10808;48.010;11.326;2023-04-26T05:39:21;12.75;;;8.32;;
21297;SDS011;10808;48.010;11.326;2023-04-26T05:41:47;14.00;;;8.30;;
21297;SDS011;10808;48.010;11.326;2023-04-26T05:44:13;12.75;;;8.20;;
21297;SDS011;10808;48.010;11.326;2023-04-26T05:46:40;12.38;;;8.15;;
21297;SDS011;10808;48.010;11.326;2023-04-26T05:49:06;14.32;;;8.15;;
21297;SDS011;10808;48.010;11.326;2023-04-26T05:51:32;13.68;;;8.52;;
21297;SDS011;10808;48.010;11.326;2023-04-26T05:53:58;12.27;;;7.90;;
21297;SDS011;10808;48.010;11.326;2023-04-26T05:56:24;12.48;;;8.50;;
21297;SDS011;10808;48.010;11.326;2023-04-26T05:58:50;13.07;;;8.30;;
21297;SDS011;10808;48.010;11.326;2023-04-26T06:01:18;13.30;;;8.73;;
21297;SDS011;10808;48.010;11.326;2023-04-26T06:03:44;14.90;;;8.35;;
21297;SDS011;10808;48.010;11.326;2023-04-26T06:06:11;15.68;;;8.85;;
21297;SDS011;10808;48.010;11.326;2023-04-26T06:08:37;15.35;;;9.30;;
21297;SDS011;10808;48.010;11.326;2023-04-26T06:11:03;15.32;;;9.27;;
21297;SDS011;10808;48.010;11.326;2023-04-26T06:13:29;13.02;;;8.45;;
21297;SDS011;10808;48.010;11.326;2023-04-26T06:15:57;13.68;;;8.63;;
21297;SDS011;10808;48.010;11.326;2023-04-26T06:18:23;13.43;;;9.10;;
21297;SDS011;10808;48.010;11.326;2023-04-26T06:20:49;19.52;;;11.68;;
21297;SDS011;10808;48.010;11.326;2023-04-26T06:23:16;14.75;;;9.55;;
21297;SDS011;10808;48.010;11.326;2023-04-26T06:25:42;14.70;;;9.50;;
21297;SDS011;10808;48.010;11.326;2023-04-26T06:28:13;14.27;;;8.73;;
21297;SDS011;10808;48.010;11.326;2023-04-26T06:30:39;14.37;;;8.93;;
21297;SDS011;10808;48.010;11.326;2023-04-26T06:33:06;14.55;;;8.70;;
21297;SDS011;10808;48.010;11.326;2023-04-26T06:35:32;13.02;;;7.90;;
21297;SDS011;10808;48.010;11.326;2023-04-26T06:37:58;11.43;;;7.50;;
21297;SDS011;10808;48.010;11.326;2023-04-26T06:40:24;11.57;;;7.65;;
21297;SDS011;10808;48.010;11.326;2023-04-26T06:42:50;11.27;;;7.33;;
21297;SDS011;10808;48.010;11.326;2023-04-26T06:45:16;12.18;;;6.85;;
21297;SDS011;10808;48.010;11.326;2023-04-26T06:47:43;11.93;;;7.40;;
21297;SDS011;10808;48.010;11.326;2023-04-26T06:50:09;14.25;;;7.13;;
21297;SDS011;10808;48.010;11.326;2023-04-26T06:52:35;9.55;;;6.57;;
21297;SDS011;10808;48.010;11.326;2023-04-26T06:55:01;8.13;;;5.90;;
21297;SDS011;10808;48.010;11.326;2023-04-26T06:57:28;8.23;;;5.50;;
21297;SDS011;10808;48.010;11.326;2023-04-26T06:59:55;6.93;;;4.57;;
21297;SDS011;10808;48.010;11.326;2023-04-26T07:02:22;8.70;;;5.03;;
21297;SDS011;10808;48.010;11.326;2023-04-26T07:04:49;7.57;;;5.05;;
21297;SDS011;10808;48.010;11.326;2023-04-26T07:07:15;10.25;;;5.53;;
21297;SDS011;10808;48.010;11.326;2023-04-26T07:09:41;9.30;;;5.20;;
21297;SDS011;10808;48.010;11.326;2023-04-26T07:12:10;7.65;;;4.53;;
21297;SDS011;10808;48.010;11.326;2023-04-26T07:14:36;6.23;;;4.23;;
21297;SDS011;10808;48.010;11.326;2023-04-26T07:17:05;6.53;;;4.50;;
21297;SDS011;10808;48.010;11.326;2023-04-26T07:19:32;6.68;;;4.03;;
21297;SDS011;10808;48.010;11.326;2023-04-26T07:21:58;7.78;;;4.55;;
21297;SDS011;10808;48.010;11.326;2023-04-26T07:24:24;8.40;;;4.40;;
21297;SDS011;10808;48.010;11.326;2023-04-26T07:26:50;6.30;;;3.80;;
21297;SDS011;10808;48.010;11.326;2023-04-26T07:29:16;7.75;;;4.50;;
21297;SDS011;10808;48.010;11.326;2023-04-26T07:31:45;5.43;;;3.90;;
21297;SDS011;10808;48.010;11.326;2023-04-26T07:34:11;6.30;;;4.20;;
21297;SDS011;10808;48.010;11.326;2023-04-26T07:36:37;5.88;;;4.22;;
21297;SDS011;10808;48.010;11.326;2023-04-26T07:39:03;7.85;;;4.60;;
21297;SDS011;10808;48.010;11.326;2023-04-26T07:41:31;6.57;;;4.60;;
21297;SDS011;10808;48.010;11.326;2023-04-26T07:43:57;8.00;;;5.28;;
21297;SDS011;10808;48.010;11.326;2023-04-26T07:46:23;8.37;;;5.13;;
21297;SDS011;10808;48.010;11.326;2023-04-26T07:48:49;9.45;;;4.80;;
21297;SDS011;10808;48.010;11.326;2023-04-26T07:51:15;8.05;;;5.35;;
21297;SDS011;10808;48.010;11.326;2023-04-26T07:53:41;7.03;;;5.35;;
21297;SDS011;10808;48.010;11.326;2023-04-26T07:56:08;6.90;;;5.47;;
21297;SDS011;10808;48.010;11.326;2023-04-26T07:58:35;8.63;;;5.45;;
21297;SDS011;10808;48.010;11.326;2023-04-26T08:01:05;8.75;;;5.25;;
21297;SDS011;10808;48.010;11.326;2023-04-26T08:03:31;9.70;;;5.03;;
21297;SDS011;10808;48.010;11.326;2023-04-26T08:05:57;7.10;;;4.80;;
21297;SDS011;10808;48.010;11.326;2023-04-26T08:08:24;7.22;;;5.43;;
21297;SDS011;10808;48.010;11.326;2023-04-26T08:10:51;8.68;;;5.70;;
21297;SDS011;10808;48.010;11.326;2023-04-26T08:13:17;9.90;;;5.60;;
21297;SDS011;10808;48.010;11.326;2023-04-26T08:15:43;8.48;;;5.38;;
21297;SDS011;10808;48.010;11.326;2023-04-26T08:18:10;7.07;;;5.30;;
21297;SDS011;10808;48.010;11.326;2023-04-26T08:20:36;8.95;;;5.95;;
21297;SDS011;10808;48.010;11.326;2023-04-26T08:23:02;9.00;;;5.20;;
21297;SDS011;10808;48.010;11.326;2023-04-26T08:25:28;8.93;;;5.38;;
21297;SDS011;10808;48.010;11.326;2023-04-26T08:27:54;7.25;;;5.15;;
21297;SDS011;10808;48.010;11.326;2023-04-26T08:30:20;8.88;;;5.75;;
21297;SDS011;10808;48.010;11.326;2023-04-26T08:32:47;9.13;;;5.60;;
21297;SDS011;10808;48.010;11.326;2023-04-26T08:35:13;8.38;;;5.55;;
21297;SDS011;10808;48.010;11.326;2023-04-26T08:37:39;7.93;;;5.32;;
21297;SDS011;10808;48.010;11.326;2023-04-26T08:40:05;7.15;;;5.40;;
21297;SDS011;10808;48.010;11.326;2023-04-26T08:42:38;7.83;;;5.37;;
21297;SDS011;10808;48.010;11.326;2023-04-26T08:45:06;7.97;;;5.68;;
21297;SDS011;10808;48.010;11.326;2023-04-26T08:47:36;10.18;;;5.13;;
21297;SDS011;10808;48.010;11.326;2023-04-26T08:50:03;8.00;;;5.30;;
21297;SDS011;10808;48.010;11.326;2023-04-26T08:52:31;8.77;;;5.20;;
21297;SDS011;10808;48.010;11.326;2023-04-26T08:54:57;8.70;;;5.07;;
21297;SDS011;10808;48.010;11.326;2023-04-26T08:57:24;8.07;;;5.20;;
21297;SDS011;10808;48.010;11.326;2023-04-26T08:59:51;7.87;;;6.00;;
21297;SDS011;10808;48.010;11.326;2023-04-26T09:02:21;7.57;;;5.38;;
21297;SDS011;10808;48.010;11.326;2023-04-26T09:04:51;9.40;;;5.30;;
21297;SDS011;10808;48.010;11.326;2023-04-26T09:07:21;7.78;;;5.57;;
21297;SDS011;10808;48.010;11.326;2023-04-26T09:10:00;8.20;;;5.37;;
21297;SDS011;10808;48.010;11.326;2023-04-26T09:12:28;8.73;;;5.53;;
21297;SDS011;10808;48.010;11.326;2023-04-26T09:14:54;7.68;;;5.13;;
21297;SDS011;10808;48.010;11.326;2023-04-26T09:17:27;6.93;;;5.40;;
21297;SDS011;10808;48.010;11.326;2023-04-26T09:23:08;7.45;;;4.78;;
21297;SDS011;10808;48.010;11.326;2023-04-26T09:25:34;8.77;;;5.20;;
21297;SDS011;10808;48.010;11.326;2023-04-26T09:28:02;10.20;;;4.80;;
21297;SDS011;10808;48.010;11.326;2023-04-26T09:30:29;7.65;;;5.20;;
21297;SDS011;10808;48.010;11.326;2023-04-26T09:33:02;7.82;;;5.00;;
21297;SDS011;10808;48.010;11.326;2023-04-26T09:35:37;6.80;;;4.93;;
21297;SDS011;10808;48.010;11.326;2023-04-26T09:38:13;7.43;;;4.70;;
21297;SDS011;10808;48.010;11.326;2023-04-26T09:40:42;8.27;;;5.18;;
21297;SDS011;10808;48.010;11.326;2023-04-26T09:43:13;7.78;;;4.20;;
21297;SDS011;10808;48.010;11.326;2023-04-26T09:45:43;5.35;;;3.60;;
21297;SDS011;10808;48.010;11.326;2023-04-26T09:48:15;5.18;;;3.10;;
21297;SDS011;10808;48.010;11.326;2023-04-26T09:50:52;6.65;;;3.10;;
21297;SDS011;10808;48.010;11.326;2023-04-26T09:56:13;4.55;;;2.67;;
21297;SDS011;10808;48.010;11.326;2023-04-26T10:01:24;4.45;;;3.08;;
21297;SDS011;10808;48.010;11.326;2023-04-26T10:03:51;3.57;;;2.80;;
21297;SDS011;10808;48.010;11.326;2023-04-26T10:06:17;4.47;;;3.10;;
21297;SDS011;10808;48.010;11.326;2023-04-26T10:08:43;4.60;;;3.00;;
21297;SDS011;10808;48.010;11.326;2023-04-26T10:11:09;4.55;;;2.80;;
21297;SDS011;10808;48.010;11.326;2023-04-26T10:13:37;4.93;;;3.42;;
21297;SDS011;10808;48.010;11.326;2023-04-26T10:16:04;2.90;;;2.60;;
21297;SDS011;10808;48.010;11.326;2023-04-26T10:18:31;3.47;;;2.30;;
21297;SDS011;10808;48.010;11.326;2023-04-26T10:20:58;8.05;;;2.78;;
21297;SDS011;10808;48.010;11.326;2023-04-26T10:23:33;4.50;;;2.78;;
21297;SDS011;10808;48.010;11.326;2023-04-26T10:25:59;4.22;;;2.65;;
21297;SDS011;10808;48.010;11.326;2023-04-26T10:31:10;4.88;;;2.90;;
21297;SDS011;10808;48.010;11.326;2023-04-26T10:33:37;4.60;;;3.20;;
21297;SDS011;10808;48.010;11.326;2023-04-26T10:36:10;2.90;;;2.50;;
21297;SDS011;10808;48.010;11.326;2023-04-26T10:38:38;3.67;;;2.70;;
21297;SDS011;10808;48.010;11.326;2023-04-26T10:43:56;5.30;;;2.60;;
21297;SDS011;10808;48.010;11.326;2023-04-26T10:46:37;5.25;;;2.70;;
21297;SDS011;10808;48.010;11.326;2023-04-26T10:49:17;6.53;;;2.90;;
21297;SDS011;10808;48.010;11.326;2023-04-26T10:57:12;4.20;;;2.60;;
21297;SDS011;10808;48.010;11.326;2023-04-26T10:59:38;3.78;;;2.92;;
21297;SDS011;10808;48.010;11.326;2023-04-26T11:02:09;4.53;;;2.80;;
21297;SDS011;10808;48.010;11.326;2023-04-26T11:04:51;4.60;;;2.85;;
21297;SDS011;10808;48.010;11.326;2023-04-26T11:07:34;4.05;;;2.53;;
21297;SDS011;10808;48.010;11.326;2023-04-26T11:10:08;4.95;;;2.80;;
21297;SDS011;10808;48.010;11.326;2023-04-26T11:12:35;4.45;;;3.00;;
21297;SDS011;10808;48.010;11.326;2023-04-26T11:15:01;5.63;;;3.20;;
21297;SDS011;10808;48.010;11.326;2023-04-26T11:17:27;4.43;;;3.20;;
21297;SDS011;10808;48.010;11.326;2023-04-26T11:19:53;4.80;;;2.90;;
21297;SDS011;10808;48.010;11.326;2023-04-26T11:22:20;4.65;;;2.80;;
21297;SDS011;10808;48.010;11.326;2023-04-26T11:24:47;4.07;;;3.10;;
21297;SDS011;10808;48.010;11.326;2023-04-26T11:27:14;6.97;;;3.05;;
21297;SDS011;10808;48.010;11.326;2023-04-26T11:29:40;5.63;;;2.80;;
21297;SDS011;10808;48.010;11.326;2023-04-26T11:32:06;6.25;;;3.20;;
21297;SDS011;10808;48.010;11.326;2023-04-26T11:34:33;6.43;;;3.42;;
21297;SDS011;10808;48.010;11.326;2023-04-26T11:37:00;5.57;;;3.33;;
21297;SDS011;10808;48.010;11.326;2023-04-26T11:39:27;5.75;;;3.00;;
21297;SDS011;10808;48.010;11.326;2023-04-26T11:44:32;4.70;;;3.03;;
21297;SDS011;10808;48.010;11.326;2023-04-26T11:46:59;5.65;;;3.30;;
21297;SDS011;10808;48.010;11.326;2023-04-26T11:49:28;5.43;;;3.25;;
21297;SDS011;10808;48.010;11.326;2023-04-26T11:51:56;4.63;;;3.03;;
21297;SDS011;10808;48.010;11.326;2023-04-26T11:54:40;4.65;;;2.95;;
21297;SDS011;10808;48.010;11.326;2023-04-26T11:57:15;4.93;;;3.17;;
21297;SDS011;10808;48.010;11.326;2023-04-26T11:59:42;5.68;;;3.17;;
21297;SDS011;10808;48.010;11.326;2023-04-26T12:02:08;5.18;;;2.90;;
21297;SDS011;10808;48.010;11.326;2023-04-26T12:04:36;5.77;;;3.27;;
21297;SDS011;10808;48.010;11.326;2023-04-26T12:07:04;7.47;;;3.30;;
21297;SDS011;10808;48.010;11.326;2023-04-26T12:09:31;4.80;;;3.00;;
21297;SDS011;10808;48.010;11.326;2023-04-26T12:11:58;4.75;;;3.22;;
21297;SDS011;10808;48.010;11.326;2023-04-26T12:14:31;5.13;;;3.13;;
21297;SDS011;10808;48.010;11.326;2023-04-26T12:17:06;5.30;;;3.13;;
21297;SDS011;10808;48.010;11.326;2023-04-26T12:19:33;3.88;;;2.92;;
21297;SDS011;10808;48.010;11.326;2023-04-26T12:22:06;5.13;;;3.03;;
21297;SDS011;10808;48.010;11.326;2023-04-26T12:24:33;4.30;;;2.70;;
21297;SDS011;10808;48.010;11.326;2023-04-26T12:27:01;3.33;;;2.80;;
21297;SDS011;10808;48.010;11.326;2023-04-26T12:29:29;4.10;;;3.00;;
21297;SDS011;10808;48.010;11.326;2023-04-26T12:31:56;5.45;;;3.05;;
21297;SDS011;10808;48.010;11.326;2023-04-26T12:34:23;5.25;;;3.22;;
21297;SDS011;10808;48.010;11.326;2023-04-26T12:36:49;4.10;;;2.60;;
21297;SDS011;10808;48.010;11.326;2023-04-26T12:39:15;5.38;;;3.30;;
21297;SDS011;10808;48.010;11.326;2023-04-26T12:41:41;5.50;;;3.03;;
21297;SDS011;10808;48.010;11.326;2023-04-26T12:44:09;4.35;;;2.70;;
21297;SDS011;10808;48.010;11.326;2023-04-26T12:46:35;6.30;;;3.42;;
21297;SDS011;10808;48.010;11.326;2023-04-26T12:49:02;6.32;;;3.00;;
21297;SDS011;10808;48.010;11.326;2023-04-26T12:51:28;4.93;;;3.03;;
21297;SDS011;10808;48.010;11.326;2023-04-26T12:53:54;5.88;;;3.20;;
21297;SDS011;10808;48.010;11.326;2023-04-26T12:56:21;6.35;;;3.10;;
21297;SDS011;10808;48.010;11.326;2023-04-26T12:58:47;4.40;;;2.88;;
21297;SDS011;10808;48.010;11.326;2023-04-26T13:01:14;6.20;;;3.00;;
21297;SDS011;10808;48.010;11.326;2023-04-26T13:03:40;3.60;;;2.60;;
21297;SDS011;10808;48.010;11.326;2023-04-26T13:06:07;7.05;;;2.72;;
21297;SDS011;10808;48.010;11.326;2023-04-26T13:08:33;4.45;;;2.90;;
21297;SDS011;10808;48.010;11.326;2023-04-26T13:10:59;4.63;;;3.10;;
21297;SDS011;10808;48.010;11.326;2023-04-26T13:13:25;4.85;;;2.78;;
21297;SDS011;10808;48.010;11.326;2023-04-26T13:15:51;5.82;;;2.80;;
21297;SDS011;10808;48.010;11.326;2023-04-26T13:18:17;4.65;;;2.70;;
21297;SDS011;10808;48.010;11.326;2023-04-26T13:20:43;5.55;;;2.85;;
21297;SDS011;10808;48.010;11.326;2023-04-26T13:23:10;4.40;;;2.47;;
21297;SDS011;10808;48.010;11.326;2023-04-26T13:25:36;4.18;;;2.90;;
21297;SDS011;10808;48.010;11.326;2023-04-26T13:28:03;5.43;;;2.63;;
21297;SDS011;10808;48.010;11.326;2023-04-26T13:30:29;4.45;;;3.00;;
21297;SDS011;10808;48.010;11.326;2023-04-26T13:32:58;6.30;;;2.90;;
21297;SDS011;10808;48.010;11.326;2023-04-26T13:35:24;5.22;;;2.92;;
21297;SDS011;10808;48.010;11.326;2023-04-26T13:37:51;4.13;;;3.05;;
21297;SDS011;10808;48.010;11.326;2023-04-26T13:40:17;4.18;;;2.83;;
21297;SDS011;10808;48.010;11.326;2023-04-26T13:42:43;4.87;;;2.70;;
21297;SDS011;10808;48.010;11.326;2023-04-26T13:45:10;5.55;;;2.92;;
21297;SDS011;10808;48.010;11.326;2023-04-26T13:47:36;4.60;;;2.60;;
21297;SDS011;10808;48.010;11.326;2023-04-26T13:50:02;6.07;;;2.40;;
21297;SDS011;10808;48.010;11.326;2023-04-26T13:52:28;6.28;;;2.72;;
21297;SDS011;10808;48.010;11.326;2023-04-26T13:54:54;5.03;;;2.50;;
21297;SDS011;10808;48.010;11.326;2023-04-26T13:57:27;4.85;;;3.00;;
21297;SDS011;10808;48.010;11.326;2023-04-26T13:59:53;4.85;;;3.15;;
21297;SDS011;10808;48.010;11.326;2023-04-26T14:02:20;5.47;;;3.30;;
21297;SDS011;10808;48.010;11.326;2023-04-26T14:04:46;4.70;;;2.90;;
21297;SDS011;10808;48.010;11.326;2023-04-26T14:07:12;3.57;;;3.10;;
21297;SDS011;10808;48.010;11.326;2023-04-26T14:09:38;4.95;;;3.15;;
21297;SDS011;10808;48.010;11.326;2023-04-26T14:12:04;6.10;;;3.30;;
21297;SDS011;10808;48.010;11.326;2023-04-26T14:14:30;5.78;;;3.10;;
21297;SDS011;10808;48.010;11.326;2023-04-26T14:16:56;5.60;;;3.08;;
21297;SDS011;10808;48.010;11.326;2023-04-26T14:19:22;6.60;;;3.00;;
21297;SDS011;10808;48.010;11.326;2023-04-26T14:21:50;6.00;;;2.90;;
21297;SDS011;10808;48.010;11.326;2023-04-26T14:24:16;5.38;;;3.05;;
21297;SDS011;10808;48.010;11.326;2023-04-26T14:26:42;6.10;;;3.10;;
21297;SDS011;10808;48.010;11.326;2023-04-26T14:29:08;5.90;;;3.17;;
21297;SDS011;10808;48.010;11.326;2023-04-26T14:31:34;8.00;;;3.60;;
21297;SDS011;10808;48.010;11.326;2023-04-26T14:34:00;5.53;;;3.30;;
21297;SDS011;10808;48.010;11.326;2023-04-26T14:36:26;8.23;;;3.23;;
21297;SDS011;10808;48.010;11.326;2023-04-26T14:38:57;5.00;;;3.10;;
21297;SDS011;10808;48.010;11.326;2023-04-26T14:41:23;5.45;;;3.08;;
21297;SDS011;10808;48.010;11.326;2023-04-26T14:43:49;5.40;;;3.13;;
21297;SDS011;10808;48.010;11.326;2023-04-26T14:46:15;6.25;;;3.35;;
21297;SDS011;10808;48.010;11.326;2023-04-26T14:48:41;3.70;;;2.97;;
21297;SDS011;10808;48.010;11.326;2023-04-26T14:51:11;4.53;;;3.20;;
21297;SDS011;10808;48.010;11.326;2023-04-26T14:53:37;13.67;;;3.97;;